Time;durP1;ratioP1;P1;durP2;ratioP2;P2;SDS_P1;SDS_P2;PMS_P1;PMS_P2;Temp;Humidity;BMP_temperature;BMP_pressure;BME280_temperature;BME280_humidity;BME280_pressure;Samples;Min_cycle;Max_cycle;Signal;HPM_P1;HPM_P2
2022/08/14 00:02:03;;;;;;;7.10;6.10;;;21.90;99.90;;;;;;5058827;28;20442;-71
2022/08/14 00:04:31;;;;;;;7.25;5.32;;;21.90;99.90;;;;;;5075106;28;20059;-73
2022/08/14 00:06:57;;;;;;;6.10;5.50;;;21.90;99.90;;;;;;5076113;28;20051;-73
2022/08/14 00:09:22;;;;;;;6.85;5.60;;;21.90;99.90;;;;;;5075328;28;20052;-73
2022/08/14 00:11:48;;;;;;;6.00;5.50;;;21.90;99.90;;;;;;5075333;28;20052;-73
2022/08/14 00:14:15;;;;;;;6.75;5.90;;;21.90;99.90;;;;;;5076762;28;20117;-73
2022/08/14 00:16:41;;;;;;;6.85;6.18;;;22.00;99.90;;;;;;5075476;28;20044;-73
2022/08/14 00:19:07;;;;;;;6.57;5.93;;;21.90;99.90;;;;;;5058844;28;20048;-73
2022/08/14 00:21:33;;;;;;;7.10;6.40;;;21.80;99.90;;;;;;5075540;28;20041;-73
2022/08/14 00:23:59;;;;;;;6.70;6.10;;;21.90;99.90;;;;;;5076403;28;20051;-73
2022/08/14 00:26:25;;;;;;;6.93;6.22;;;21.90;99.90;;;;;;5076708;28;20056;-73
2022/08/14 00:28:52;;;;;;;6.53;5.93;;;21.80;99.90;;;;;;5058692;28;20481;-73
2022/08/14 00:31:18;;;;;;;8.98;6.55;;;21.70;99.90;;;;;;5075328;28;20044;-74
2022/08/14 00:33:44;;;;;;;7.43;6.55;;;21.80;99.90;;;;;;5075426;28;20544;-74
2022/08/14 00:36:10;;;;;;;7.38;6.68;;;21.60;99.90;;;;;;5058387;28;20131;-74
2022/08/14 00:38:36;;;;;;;7.30;6.47;;;21.70;99.90;;;;;;5075052;28;20360;-75
2022/08/14 00:41:07;;;;;;;8.02;6.75;;;21.60;99.90;;;;;;5074737;28;20068;-75
2022/08/14 00:43:34;;;;;;;7.13;6.43;;;21.70;99.90;;;;;;5076183;28;20488;-74
2022/08/14 00:46:05;;;;;;;7.70;6.43;;;21.60;99.90;;;;;;5075934;28;20087;-75
2022/08/14 00:48:32;;;;;;;7.70;6.60;;;21.70;99.90;;;;;;5058429;28;20094;-75
2022/08/14 00:50:58;;;;;;;7.35;6.65;;;21.60;99.90;;;;;;5074742;28;20416;-75
2022/08/14 00:53:24;;;;;;;6.97;6.28;;;21.70;99.90;;;;;;5074964;28;20127;-75
2022/08/14 00:55:54;;;;;;;7.75;7.00;;;21.60;99.90;;;;;;5074637;28;20082;-74
2022/08/14 00:58:29;;;;;;;7.53;6.75;;;21.60;99.90;;;;;;5075942;28;20052;-75
2022/08/14 01:00:56;;;;;;;7.00;6.30;;;21.60;99.90;;;;;;5074881;28;20057;-74
2022/08/14 01:03:23;;;;;;;7.25;6.55;;;21.50;99.90;;;;;;5075515;28;20040;-75
2022/08/14 01:05:51;;;;;;;8.07;6.88;;;21.50;99.90;;;;;;5073663;28;20048;-74
2022/08/14 01:08:19;;;;;;;7.55;6.45;;;21.50;99.90;;;;;;5074614;28;20400;-74
2022/08/14 01:10:50;;;;;;;7.88;7.05;;;21.50;99.90;;;;;;5075049;28;20123;-75
2022/08/14 01:13:23;;;;;;;7.28;6.57;;;21.70;99.90;;;;;;5058227;28;20088;-74
2022/08/14 01:15:53;;;;;;;9.27;6.35;;;21.50;99.90;;;;;;5075603;28;20060;-75
2022/08/14 01:21:07;;;;;;;7.50;6.72;;;21.50;99.90;;;;;;5074995;28;20048;-74
2022/08/14 01:23:49;;;;;;;7.60;7.00;;;21.50;99.90;;;;;;5057829;28;20052;-74
2022/08/14 01:26:19;;;;;;;8.05;6.82;;;21.50;99.90;;;;;;5075386;28;20554;-74
2022/08/14 01:28:47;;;;;;;7.32;6.63;;;21.60;99.90;;;;;;5073945;28;20488;-74
2022/08/14 01:31:18;;;;;;;6.85;6.10;;;21.40;99.90;;;;;;5075282;28;20127;-74
2022/08/14 01:33:48;;;;;;;9.18;7.15;;;21.40;99.90;;;;;;5074396;28;20127;-74
2022/08/14 01:36:16;;;;;;;7.85;7.13;;;21.60;99.90;;;;;;5074111;28;20056;-74
2022/08/14 01:38:47;;;;;;;7.95;6.82;;;21.40;99.90;;;;;;5074992;28;20052;-75
2022/08/14 01:41:19;;;;;;;8.07;6.45;;;21.50;99.90;;;;;;5074423;28;20053;-75
2022/08/14 01:43:51;;;;;;;7.50;6.53;;;21.50;99.90;;;;;;5074945;28;20484;-75
2022/08/14 01:46:19;;;;;;;7.97;6.80;;;21.50;99.90;;;;;;5074963;28;20571;-75
2022/08/14 01:48:45;;;;;;;7.60;6.65;;;21.50;99.90;;;;;;5074992;28;20045;-75
2022/08/14 01:51:13;;;;;;;7.47;6.88;;;21.40;99.90;;;;;;5074724;28;20131;-74
2022/08/14 01:53:46;;;;;;;7.40;6.70;;;21.60;99.90;;;;;;5074716;28;20054;-75
2022/08/14 01:56:17;;;;;;;7.68;6.85;;;21.40;99.90;;;;;;5074866;28;20039;-75
2022/08/14 01:58:47;;;;;;;7.53;6.82;;;21.40;99.90;;;;;;5073838;28;20055;-75
2022/08/14 02:01:15;;;;;;;7.57;6.88;;;21.50;99.90;;;;;;5074700;28;20048;-74
2022/08/14 02:03:40;;;;;;;7.88;7.07;;;21.50;99.90;;;;;;5074469;28;20484;-74
2022/08/14 02:06:07;;;;;;;8.23;7.53;;;21.50;99.90;;;;;;5074275;28;20051;-75
2022/08/14 02:08:36;;;;;;;7.50;6.90;;;21.50;99.90;;;;;;5074868;28;20044;-75
2022/08/14 02:11:17;;;;;;;8.00;7.20;;;21.50;99.90;;;;;;5073954;28;20048;-75
2022/08/14 02:13:49;;;;;;;9.18;8.27;;;21.40;99.90;;;;;;5074533;28;20084;-75
2022/08/14 02:16:28;;;;;;;8.48;7.57;;;21.40;99.90;;;;;;5074324;28;20497;-74
2022/08/14 02:18:56;;;;;;;8.55;7.72;;;21.40;99.90;;;;;;5073907;28;20036;-74
2022/08/14 02:21:22;;;;;;;8.60;7.85;;;21.30;99.90;;;;;;5073682;28;20056;-74
2022/08/14 02:23:50;;;;;;;10.50;8.20;;;21.30;99.90;;;;;;5073376;28;20549;-74
2022/08/14 02:26:18;;;;;;;8.95;7.63;;;21.40;99.90;;;;;;5057085;28;20053;-74
2022/08/14 02:28:45;;;;;;;8.77;7.97;;;21.40;99.90;;;;;;5074128;28;20492;-74
2022/08/14 02:31:12;;;;;;;10.30;7.65;;;21.30;99.90;;;;;;5073957;28;20036;-74
2022/08/14 02:33:40;;;;;;;8.38;7.50;;;21.30;99.90;;;;;;5074270;28;20127;-75
2022/08/14 02:36:08;;;;;;;9.02;8.20;;;21.20;99.90;;;;;;5074281;28;20122;-74
2022/08/14 02:38:35;;;;;;;8.50;7.30;;;21.20;99.90;;;;;;5074128;28;20051;-74
2022/08/14 02:41:01;;;;;;;8.32;7.47;;;21.20;99.90;;;;;;5073610;28;20048;-75
2022/08/14 02:43:31;;;;;;;8.63;7.72;;;21.50;99.90;;;;;;5072895;28;20072;-74
2022/08/14 02:45:57;;;;;;;8.85;8.05;;;21.30;99.90;;;;;;5072702;28;20128;-75
2022/08/14 02:48:31;;;;;;;8.98;8.07;;;21.30;99.90;;;;;;5072721;28;20045;-74
2022/08/14 02:50:57;;;;;;;8.43;7.68;;;21.30;99.90;;;;;;5074008;28;20049;-74
2022/08/14 02:53:23;;;;;;;9.10;8.20;;;21.20;99.90;;;;;;5072947;28;20075;-74
2022/08/14 02:55:49;;;;;;;8.82;7.93;;;21.10;99.90;;;;;;5073894;28;20472;-74
2022/08/14 02:58:16;;;;;;;8.15;7.45;;;21.20;99.90;;;;;;5073631;28;20080;-75
2022/08/14 03:00:42;;;;;;;9.35;8.27;;;21.10;99.90;;;;;;5073870;28;20044;-75
2022/08/14 03:03:07;;;;;;;9.23;8.18;;;21.10;99.90;;;;;;5056013;28;20063;-75
2022/08/14 03:05:34;;;;;;;9.00;8.18;;;21.10;99.90;;;;;;5073144;28;20064;-75
2022/08/14 03:08:09;;;;;;;8.73;7.93;;;21.00;99.90;;;;;;5056116;28;20059;-75
2022/08/14 03:10:36;;;;;;;9.20;8.30;;;21.00;99.90;;;;;;5056086;28;20100;-75
2022/08/14 03:13:05;;;;;;;9.27;8.32;;;21.20;99.90;;;;;;5073475;28;20053;-75
2022/08/14 03:15:33;;;;;;;10.00;8.25;;;21.10;99.90;;;;;;5040605;28;20049;-76
2022/08/14 03:17:59;;;;;;;9.55;8.45;;;20.90;99.90;;;;;;5072517;28;20045;-76
2022/08/14 03:20:27;;;;;;;9.30;8.40;;;21.10;99.90;;;;;;5055718;28;20056;-76
2022/08/14 03:22:54;;;;;;;10.68;8.20;;;20.90;99.90;;;;;;5056078;28;20135;-76
2022/08/14 03:25:21;;;;;;;9.77;8.38;;;21.30;99.90;;;;;;5056261;28;20388;-76
2022/08/14 03:27:46;;;;;;;9.63;8.60;;;20.90;99.90;;;;;;5056336;28;20465;-76
2022/08/14 03:30:12;;;;;;;9.45;8.55;;;21.00;99.90;;;;;;5056117;28;20059;-76
2022/08/14 03:32:38;;;;;;;9.43;8.45;;;20.90;99.90;;;;;;5072809;28;20047;-76
2022/08/14 03:35:05;;;;;;;10.30;8.80;;;20.90;99.90;;;;;;5022811;28;20075;-76
2022/08/14 03:37:32;;;;;;;10.85;8.57;;;21.00;99.90;;;;;;5072260;28;20056;-76
2022/08/14 03:40:05;;;;;;;9.57;8.68;;;21.10;99.90;;;;;;5041127;28;20064;-76
2022/08/14 03:42:31;;;;;;;9.98;9.07;;;20.90;99.90;;;;;;5038954;28;20080;-76
2022/08/14 03:44:57;;;;;;;9.77;8.73;;;20.80;99.90;;;;;;5072261;28;20084;-76
2022/08/14 03:47:24;;;;;;;8.95;8.10;;;21.00;99.90;;;;;;5072426;28;20147;-75
2022/08/14 03:49:50;;;;;;;8.38;7.65;;;20.90;99.90;;;;;;5072143;28;20049;-76
2022/08/14 03:52:17;;;;;;;9.38;8.45;;;20.80;99.90;;;;;;5056402;28;20094;-76
2022/08/14 03:54:43;;;;;;;9.02;8.13;;;20.90;99.90;;;;;;5055514;28;20060;-76
2022/08/14 03:57:09;;;;;;;8.80;7.95;;;20.90;99.90;;;;;;5072051;28;20056;-76
2022/08/14 03:59:35;;;;;;;9.18;8.27;;;21.00;99.90;;;;;;5055637;28;20040;-76
2022/08/14 04:02:02;;;;;;;11.02;8.50;;;20.80;99.90;;;;;;5039380;28;20048;-76
2022/08/14 04:04:29;;;;;;;8.63;7.82;;;21.00;99.90;;;;;;5072853;28;20477;-75
2022/08/14 04:06:55;;;;;;;9.40;8.50;;;20.80;99.90;;;;;;5055488;28;20048;-76
2022/08/14 04:09:21;;;;;;;9.25;8.32;;;21.80;99.90;;;;;;5055544;28;20043;-76
2022/08/14 04:11:47;;;;;;;9.88;8.48;;;21.30;99.90;;;;;;5055707;28;20054;-76
2022/08/14 04:14:13;;;;;;;9.10;8.20;;;20.80;99.90;;;;;;5055534;28;20558;-76
2022/08/14 04:16:42;;;;;;;9.35;8.30;;;21.00;99.90;;;;;;5072141;28;20052;-76
2022/08/14 04:19:08;;;;;;;9.30;8.18;;;20.80;99.90;;;;;;5071877;28;20489;-75
2022/08/14 04:21:34;;;;;;;8.82;8.00;;;20.80;99.90;;;;;;5072000;28;20485;-76
2022/08/14 04:24:00;;;;;;;10.05;8.48;;;20.80;99.90;;;;;;5055866;28;20132;-76
2022/08/14 04:26:28;;;;;;;10.32;9.35;;;20.80;99.90;;;;;;5055276;28;20075;-76
2022/08/14 04:28:55;;;;;;;8.77;7.85;;;20.80;99.90;;;;;;5071971;28;20088;-76
2022/08/14 04:31:23;;;;;;;9.60;8.57;;;20.70;99.90;;;;;;5072224;28;20045;-74
2022/08/14 04:33:51;;;;;;;9.02;8.13;;;20.80;99.90;;;;;;5073518;28;20495;-75
2022/08/14 04:36:17;;;;;;;9.60;8.35;;;20.80;99.90;;;;;;5072593;28;20496;-76
2022/08/14 04:44:12;;;;;;;9.95;8.77;;;20.60;99.90;;;;;;5076169;28;20412;-75
2022/08/14 04:46:38;;;;;;;9.93;8.60;;;20.60;99.90;;;;;;5058701;28;20048;-76
2022/08/14 04:49:04;;;;;;;8.50;7.80;;;20.70;99.90;;;;;;5075217;28;20067;-75
2022/08/14 04:51:31;;;;;;;9.88;8.63;;;20.50;99.90;;;;;;5058507;28;20377;-76
2022/08/14 04:53:59;;;;;;;8.82;7.82;;;20.70;99.90;;;;;;5059276;28;20385;-75
2022/08/14 04:56:25;;;;;;;9.57;8.68;;;20.70;99.90;;;;;;5059161;28;20055;-76
2022/08/14 04:58:57;;;;;;;10.00;8.82;;;20.70;99.90;;;;;;5042104;28;20101;-75
2022/08/14 05:01:24;;;;;;;9.65;8.15;;;20.60;99.90;;;;;;5075114;28;20056;-76
2022/08/14 05:03:51;;;;;;;10.43;9.07;;;20.40;99.90;;;;;;5058157;28;20053;-76
2022/08/14 05:06:17;;;;;;;12.55;9.32;;;20.60;99.90;;;;;;5057708;28;20037;-75
2022/08/14 05:08:43;;;;;;;9.63;8.63;;;20.70;99.90;;;;;;5075264;28;20086;-75
2022/08/14 05:11:09;;;;;;;9.95;8.95;;;21.10;99.90;;;;;;5058421;28;20077;-75
2022/08/14 05:13:36;;;;;;;9.77;8.77;;;20.70;99.90;;;;;;5075905;28;20048;-75
2022/08/14 05:16:04;;;;;;;10.80;8.63;;;20.80;99.90;;;;;;5058203;28;20139;-75
2022/08/14 05:18:32;;;;;;;10.65;8.88;;;20.80;99.90;;;;;;5075616;28;20124;-75
2022/08/14 05:21:00;;;;;;;9.55;8.60;;;20.80;99.90;;;;;;5074794;28;20056;-75
2022/08/14 05:23:30;;;;;;;9.23;8.32;;;20.70;99.90;;;;;;5057754;28;20083;-76
2022/08/14 05:26:16;;;;;;;8.82;8.02;;;21.00;99.90;;;;;;5058659;28;20372;-76
2022/08/14 05:28:45;;;;;;;9.32;8.30;;;21.20;99.90;;;;;;5058427;28;20054;-76
2022/08/14 05:31:16;;;;;;;11.65;8.50;;;20.90;99.90;;;;;;5074685;28;20063;-75
2022/08/14 05:33:43;;;;;;;8.93;8.00;;;20.90;99.90;;;;;;5074161;28;20054;-76
2022/08/14 05:36:10;;;;;;;9.85;8.00;;;21.00;99.90;;;;;;5057556;28;20590;-77
2022/08/14 05:38:45;;;;;;;10.07;8.75;;;21.00;99.90;;;;;;5075287;28;20048;-76
2022/08/14 05:41:16;;;;;;;9.65;8.15;;;21.00;99.90;;;;;;5074254;28;20049;-69
2022/08/14 05:43:43;;;;;;;8.65;7.85;;;21.00;99.90;;;;;;5075061;28;20037;-69
2022/08/14 05:46:11;;;;;;;10.32;8.68;;;21.20;99.90;;;;;;5057207;28;20040;-69
2022/08/14 05:48:37;;;;;;;8.85;8.02;;;21.20;99.90;;;;;;5074331;28;20131;-69
2022/08/14 05:51:02;;;;;;;11.00;8.98;;;21.20;99.90;;;;;;5073385;28;20132;-69
2022/08/14 05:53:28;;;;;;;10.18;9.13;;;21.30;99.90;;;;;;5074012;28;20131;-69
2022/08/14 05:55:54;;;;;;;10.00;9.00;;;21.20;99.90;;;;;;5074904;28;20047;-69
2022/08/14 05:58:21;;;;;;;12.68;10.15;;;21.30;99.90;;;;;;5073770;28;20399;-69
2022/08/14 06:00:48;;;;;;;12.05;9.80;;;21.40;99.90;;;;;;5057586;28;20044;-69
2022/08/14 06:03:16;;;;;;;11.93;10.38;;;21.60;99.90;;;;;;5074231;28;20362;-69
2022/08/14 06:05:43;;;;;;;13.48;10.40;;;21.30;99.90;;;;;;5072929;28;20488;-70
2022/08/14 06:08:22;;;;;;;12.32;11.02;;;21.30;99.90;;;;;;5074608;28;20056;-69
2022/08/14 06:10:49;;;;;;;13.07;10.57;;;21.50;99.90;;;;;;5073998;28;20052;-69
2022/08/14 06:13:15;;;;;;;14.88;11.15;;;21.60;99.90;;;;;;5073520;28;20128;-67
2022/08/14 06:15:42;;;;;;;12.60;9.70;;;21.40;99.90;;;;;;5074604;28;20120;-68
2022/08/14 06:18:07;;;;;;;13.50;10.70;;;21.60;99.90;;;;;;5073209;28;20083;-69
2022/08/14 06:20:34;;;;;;;10.40;9.30;;;21.60;99.90;;;;;;5074253;28;20044;-69
2022/08/14 06:23:00;;;;;;;11.30;8.52;;;21.70;99.90;;;;;;5073204;28;20040;-68
2022/08/14 06:25:26;;;;;;;9.63;8.27;;;21.70;99.90;;;;;;5073162;28;20044;-69
2022/08/14 06:27:52;;;;;;;9.75;8.75;;;21.70;99.90;;;;;;5073289;28;20044;-69
2022/08/14 06:30:20;;;;;;;10.10;8.40;;;21.80;99.90;;;;;;5073256;28;20074;-68
2022/08/14 06:32:46;;;;;;;8.65;7.80;;;21.60;99.90;;;;;;5072765;28;20480;-68
2022/08/14 06:35:13;;;;;;;11.02;8.48;;;21.80;99.90;;;;;;5073181;28;20044;-69
2022/08/14 06:37:55;;;;;;;8.90;8.15;;;21.90;99.90;;;;;;5072608;28;20044;-68
2022/08/14 06:40:35;;;;;;;9.07;8.07;;;22.00;99.90;;;;;;5074012;28;20493;-69
2022/08/14 06:43:04;;;;;;;8.68;7.28;;;22.00;99.90;;;;;;5074040;28;20044;-69
2022/08/14 06:45:31;;;;;;;8.50;7.45;;;22.00;99.90;;;;;;5072779;28;20086;-68
2022/08/14 06:47:57;;;;;;;7.82;7.03;;;22.10;99.90;;;;;;5073957;28;20048;-69
2022/08/14 06:50:24;;;;;;;8.10;7.30;;;22.20;99.90;;;;;;5072667;28;20052;-68
2022/08/14 06:52:49;;;;;;;7.68;6.95;;;22.20;99.90;;;;;;5073708;28;20056;-69
2022/08/14 06:55:19;;;;;;;8.60;6.85;;;22.30;99.90;;;;;;5073880;28;20110;-68
2022/08/14 06:57:47;;;;;;;8.00;6.68;;;22.50;99.90;;;;;;5072525;28;20047;-68
2022/08/14 07:00:15;;;;;;;7.50;6.80;;;22.40;99.90;;;;;;5072789;28;20062;-69
2022/08/14 07:05:45;;;;;;;7.25;6.65;;;22.50;99.90;;;;;;5071860;28;20136;-68
2022/08/14 07:08:35;;;;;;;7.65;6.75;;;22.90;99.90;;;;;;5074224;28;20051;-69
2022/08/14 07:11:03;;;;;;;7.57;6.85;;;22.70;99.90;;;;;;5073419;28;20099;-71
2022/08/14 07:13:29;;;;;;;7.20;6.50;;;22.80;99.90;;;;;;5073687;28;20054;-69
2022/08/14 07:15:57;;;;;;;7.75;6.60;;;23.00;99.90;;;;;;5072662;28;20049;-69
2022/08/14 07:18:26;;;;;;;7.78;6.47;;;23.00;99.90;;;;;;5056417;28;20102;-69
2022/08/14 07:20:54;;;;;;;7.25;6.55;;;22.90;99.90;;;;;;5072564;28;20487;-70
2022/08/14 07:23:24;;;;;;;7.63;6.75;;;22.90;99.90;;;;;;5056614;28;20052;-71
2022/08/14 07:25:52;;;;;;;6.80;6.18;;;23.00;99.90;;;;;;5072274;28;20052;-70
2022/08/14 07:28:23;;;;;;;9.48;6.72;;;23.10;99.90;;;;;;5055840;28;20105;-70
2022/08/14 07:30:56;;;;;;;8.98;6.50;;;23.10;99.90;;;;;;5054999;28;20534;-71
2022/08/14 07:33:24;;;;;;;6.97;6.32;;;23.20;99.90;;;;;;5072701;28;20040;-71
2022/08/14 07:35:50;;;;;;;6.80;6.20;;;23.20;99.90;;;;;;5071615;28;20064;-71
2022/08/14 07:38:17;;;;;;;7.00;6.32;;;23.30;99.90;;;;;;5038822;28;20040;-73
2022/08/14 07:40:43;;;;;;;6.53;5.90;;;23.30;99.90;;;;;;5055854;28;20052;-71
2022/08/14 07:43:09;;;;;;;7.15;6.45;;;23.40;99.90;;;;;;5056452;28;20373;-71
2022/08/14 07:45:35;;;;;;;7.13;6.43;;;23.50;99.90;;;;;;5072271;28;20080;-71
2022/08/14 07:48:00;;;;;;;5.95;5.45;;;23.60;99.90;;;;;;5056227;28;20171;-73
2022/08/14 07:50:26;;;;;;;7.00;5.72;;;23.60;99.90;;;;;;5073460;28;20065;-71
2022/08/14 07:52:52;;;;;;;6.32;5.80;;;23.70;99.90;;;;;;5073387;28;20368;-71
2022/08/14 07:55:18;;;;;;;6.85;5.80;;;23.70;99.90;;;;;;5072682;28;20052;-71
2022/08/14 07:57:46;;;;;;;6.25;5.65;;;23.80;99.90;;;;;;5055622;28;20197;-71
2022/08/14 08:00:15;;;;;;;7.25;5.40;;;23.90;99.90;;;;;;5056155;28;20495;-70
2022/08/14 08:02:43;;;;;;;6.07;5.60;;;24.00;99.90;;;;;;5072323;28;20134;-71
2022/08/14 08:05:11;;;;;;;7.13;4.97;;;24.10;99.90;;;;;;5071981;28;20079;-70
2022/08/14 08:07:38;;;;;;;5.78;5.28;;;24.10;99.90;;;;;;5072264;28;20048;-71
2022/08/14 08:13:13;;;;;;;5.90;5.10;;;24.20;99.90;;;;;;5072116;28;20440;-71
2022/08/14 08:15:41;;;;;;;6.93;5.00;;;24.30;99.90;;;;;;5076877;28;20142;-70
2022/08/14 08:18:10;;;;;;;6.40;5.80;;;24.30;99.90;;;;;;5077715;28;20077;-70
2022/08/14 08:20:39;;;;;;;7.68;5.20;;;24.40;99.90;;;;;;5076883;28;20484;-71
2022/08/14 08:23:06;;;;;;;5.78;5.25;;;24.40;99.90;;;;;;5077081;28;20492;-70
2022/08/14 08:25:34;;;;;;;5.72;5.15;;;24.50;99.90;;;;;;5075609;28;20129;-68
2022/08/14 08:28:12;;;;;;;6.63;5.97;;;24.60;99.90;;;;;;5076590;28;20105;-68
2022/08/14 08:30:41;;;;;;;5.35;4.85;;;24.60;99.90;;;;;;5077200;28;20044;-70
2022/08/14 08:33:09;;;;;;;5.30;4.90;;;24.70;99.90;;;;;;5076201;28;20056;-70
2022/08/14 08:35:40;;;;;;;5.78;5.38;;;24.80;99.90;;;;;;5076278;28;20496;-75
2022/08/14 08:38:08;;;;;;;5.43;4.90;;;24.70;99.90;;;;;;5075697;28;20048;-76
2022/08/14 08:40:38;;;;;;;6.10;5.00;;;24.80;99.90;;;;;;5076447;28;20583;-72
2022/08/14 08:43:05;;;;;;;6.07;5.40;;;24.80;99.90;;;;;;5076443;28;20052;-75
2022/08/14 08:45:33;;;;;;;6.18;5.57;;;24.90;99.90;;;;;;5075269;28;20049;-75
2022/08/14 08:47:59;;;;;;;5.82;5.30;;;24.80;99.90;;;;;;5076379;28;20052;-75
2022/08/14 08:50:29;;;;;;;6.32;5.70;;;24.90;99.90;;;;;;5075138;28;20399;-75
2022/08/14 08:52:57;;;;;;;6.55;5.57;;;25.00;99.90;;;;;;5076839;28;20044;-75
2022/08/14 08:55:30;;;;;;;5.88;5.38;;;25.10;99.90;;;;;;5075026;28;20596;-75
2022/08/14 08:57:58;;;;;;;5.97;5.45;;;25.00;99.90;;;;;;5075282;28;20056;-74
2022/08/14 09:00:24;;;;;;;6.47;5.88;;;25.10;99.90;;;;;;5074148;28;20419;-76
2022/08/14 09:02:58;;;;;;;6.05;5.55;;;25.10;99.90;;;;;;5075891;28;20041;-75
2022/08/14 09:05:24;;;;;;;6.18;5.57;;;25.30;99.90;;;;;;5074332;28;20139;-76
2022/08/14 09:07:50;;;;;;;7.60;6.30;;;25.30;99.90;;;;;;5075189;28;20476;-75
2022/08/14 09:10:16;;;;;;;6.55;5.95;;;25.30;99.90;;;;;;5075290;28;20059;-78
2022/08/14 09:12:42;;;;;;;6.65;5.80;;;25.40;99.90;;;;;;5075132;28;20476;-75
2022/08/14 09:15:08;;;;;;;7.63;6.05;;;25.40;99.90;;;;;;5074335;28;20048;-74
2022/08/14 09:17:35;;;;;;;6.32;5.82;;;25.40;99.90;;;;;;5075646;28;20389;-74
2022/08/14 09:20:01;;;;;;;6.38;5.88;;;25.50;99.90;;;;;;5074623;28;20047;-77
2022/08/14 09:22:27;;;;;;;5.97;5.47;;;25.40;99.90;;;;;;5075396;28;20123;-76
2022/08/14 09:24:54;;;;;;;5.97;5.47;;;25.50;99.90;;;;;;5074369;28;20178;-76
2022/08/14 09:27:19;;;;;;;6.57;5.97;;;25.50;99.90;;;;;;5075295;28;20059;-72
2022/08/14 09:29:46;;;;;;;6.38;5.65;;;25.60;99.90;;;;;;5074906;28;20052;-74
2022/08/14 09:32:20;;;;;;;5.82;5.32;;;25.60;99.60;;;;;;5075523;28;20057;-74
2022/08/14 09:35:08;;;;;;;6.40;5.80;;;25.70;99.50;;;;;;5073951;28;20044;-74
2022/08/14 09:38:18;;;;;;;6.47;5.88;;;25.70;99.30;;;;;;5074504;28;20048;-73
2022/08/14 09:41:27;;;;;;;7.18;5.72;;;25.70;99.30;;;;;;5068955;28;20053;-74
2022/08/14 09:44:31;;;;;;;6.00;5.50;;;25.70;99.30;;;;;;5073261;28;20048;-74
2022/08/14 09:46:57;;;;;;;7.03;6.43;;;25.80;99.20;;;;;;5074330;28;20045;-78
2022/08/14 09:49:35;;;;;;;6.35;5.57;;;25.90;99.20;;;;;;5073778;28;20109;-81
2022/08/14 09:52:13;;;;;;;8.15;5.80;;;25.90;98.80;;;;;;5074593;28;20045;-78
2022/08/14 09:54:41;;;;;;;6.60;6.00;;;26.00;98.80;;;;;;5075062;28;20174;-83
2022/08/14 09:57:10;;;;;;;6.07;5.47;;;26.00;98.50;;;;;;5073779;28;20094;-81
2022/08/14 09:59:48;;;;;;;6.38;5.80;;;26.10;98.50;;;;;;5057074;28;20140;-82
2022/08/14 10:02:21;;;;;;;5.53;5.03;;;26.10;98.60;;;;;;5057422;28;20052;-84
2022/08/14 10:05:02;;;;;;;7.47;5.78;;;26.10;98.40;;;;;;5072980;28;20052;-82
2022/08/14 10:07:32;;;;;;;5.38;4.88;;;26.20;98.30;;;;;;5074917;28;20084;-82
2022/08/14 10:09:59;;;;;;;4.97;4.28;;;26.20;98.00;;;;;;5073339;28;20090;-87
2022/08/14 10:12:47;;;;;;;5.15;4.72;;;26.30;97.50;;;;;;5056687;28;20523;-84
2022/08/14 10:15:18;;;;;;;5.85;5.35;;;26.40;97.30;;;;;;5073166;28;20048;-83
2022/08/14 10:17:45;;;;;;;5.35;4.95;;;26.40;97.40;;;;;;5075311;28;20040;-85
2022/08/14 10:20:12;;;;;;;5.85;5.07;;;26.40;97.30;;;;;;5073527;28;20041;-81
2022/08/14 10:22:38;;;;;;;5.07;4.60;;;26.50;97.10;;;;;;5072846;28;20106;-84
2022/08/14 10:25:16;;;;;;;5.38;4.88;;;26.60;96.70;;;;;;5072285;28;20052;-85
2022/08/14 10:27:45;;;;;;;5.15;4.70;;;26.60;97.00;;;;;;5074487;28;20049;-81
2022/08/14 10:30:19;;;;;;;5.35;4.95;;;26.70;96.50;;;;;;5073157;28;20056;-83
2022/08/14 10:32:47;;;;;;;5.47;4.90;;;26.70;96.00;;;;;;5073422;28;20041;-80
2022/08/14 10:35:14;;;;;;;5.10;4.70;;;26.80;95.80;;;;;;5056442;28;20056;-80
2022/08/14 10:37:48;;;;;;;5.30;4.80;;;26.80;95.70;;;;;;5073447;28;20486;-82
2022/08/14 10:40:25;;;;;;;5.65;4.93;;;26.90;95.70;;;;;;5073940;28;20052;-85
2022/08/14 10:42:51;;;;;;;5.35;4.93;;;26.90;95.20;;;;;;5074438;28;20397;-82
2022/08/14 10:45:19;;;;;;;5.25;4.85;;;26.90;95.10;;;;;;5055741;28;20080;-86
2022/08/14 10:47:46;;;;;;;5.55;4.95;;;27.00;94.60;;;;;;5056147;28;20049;-82
2022/08/14 10:50:14;;;;;;;6.15;5.25;;;27.00;94.60;;;;;;5073492;28;20558;-79
2022/08/14 10:52:41;;;;;;;5.15;4.72;;;27.00;94.90;;;;;;5074218;28;20040;-82
2022/08/14 10:55:18;;;;;;;5.88;4.65;;;27.10;94.90;;;;;;5055474;28;20060;-81
2022/08/14 10:57:52;;;;;;;5.55;5.05;;;26.50;94.40;;;;;;5074282;28;20074;-79
2022/08/14 11:00:27;;;;;;;5.05;4.57;;;27.10;94.30;;;;;;5072071;28;20485;-73
2022/08/14 11:03:19;;;;;;;5.68;4.70;;;27.20;94.10;;;;;;5072395;28;20508;-73
2022/08/14 11:05:50;;;;;;;5.28;4.85;;;27.30;94.10;;;;;;5070341;28;20385;-74
2022/08/14 11:08:28;;;;;;;4.95;4.45;;;27.40;94.10;;;;;;5073315;28;20091;-78
2022/08/14 11:10:57;;;;;;;4.82;4.47;;;27.40;94.20;;;;;;5074312;28;20075;-75
2022/08/14 11:13:26;;;;;;;5.40;4.90;;;27.40;94.40;;;;;;5072457;28;20075;-76
2022/08/14 11:15:54;;;;;;;5.43;4.72;;;27.50;94.10;;;;;;5073267;28;20110;-76
2022/08/14 11:18:21;;;;;;;5.40;4.90;;;27.60;94.10;;;;;;5072873;28;20045;-76
2022/08/14 11:20:54;;;;;;;5.75;4.72;;;27.70;94.30;;;;;;5072913;28;20044;-73
2022/08/14 11:23:21;;;;;;;4.80;4.43;;;27.60;92.70;;;;;;5071760;28;20056;-73
2022/08/14 11:25:48;;;;;;;6.70;4.47;;;27.60;93.00;;;;;;5073085;28;20051;-71
2022/08/14 11:28:15;;;;;;;5.18;4.60;;;27.60;92.50;;;;;;5071255;28;20484;-73
2022/08/14 11:30:47;;;;;;;5.35;4.85;;;27.60;91.90;;;;;;5073346;28;20041;-73
2022/08/14 11:33:14;;;;;;;6.70;4.60;;;27.70;91.80;;;;;;5072642;28;20111;-73
2022/08/14 11:35:41;;;;;;;5.57;4.60;;;27.70;91.60;;;;;;5073053;28;20052;-72
2022/08/14 11:38:06;;;;;;;5.97;4.97;;;27.70;91.60;;;;;;5072241;28;20044;-76
2022/08/14 11:40:36;;;;;;;5.32;4.50;;;27.70;91.60;;;;;;5071666;28;20051;-80
2022/08/14 11:43:04;;;;;;;5.38;4.88;;;27.70;91.60;;;;;;5072361;28;20047;-76
2022/08/14 11:45:33;;;;;;;6.47;4.57;;;27.70;91.80;;;;;;5072638;28;20054;-73
2022/08/14 11:48:01;;;;;;;6.10;4.78;;;27.80;91.60;;;;;;5072721;28;20063;-74
2022/08/14 11:50:33;;;;;;;5.75;5.22;;;27.60;91.40;;;;;;5075655;28;20127;-75
2022/08/14 11:53:01;;;;;;;4.70;4.30;;;27.90;91.20;;;;;;5075603;28;20508;-74
2022/08/14 11:55:32;;;;;;;5.32;4.93;;;28.10;91.00;;;;;;5076793;28;20105;-78
2022/08/14 11:58:05;;;;;;;4.97;4.35;;;28.10;90.90;;;;;;5058653;28;20044;-77
2022/08/14 12:00:32;;;;;;;5.45;4.18;;;28.10;90.70;;;;;;5077020;28;20053;-74
2022/08/14 12:03:00;;;;;;;5.88;4.70;;;28.10;90.90;;;;;;5076879;28;20052;-78
2022/08/14 12:05:32;;;;;;;5.53;5.03;;;28.10;90.40;;;;;;5077112;28;20507;-76
2022/08/14 12:07:59;;;;;;;5.47;4.97;;;28.10;90.50;;;;;;5075917;28;20151;-76
2022/08/14 12:10:27;;;;;;;5.80;5.28;;;28.10;90.40;;;;;;5075637;28;20076;-79
2022/08/14 12:12:55;;;;;;;5.82;4.57;;;28.00;90.00;;;;;;5059028;28;20067;-77
2022/08/14 12:15:33;;;;;;;5.40;4.57;;;28.00;90.00;;;;;;5075822;28;20041;-77
2022/08/14 12:18:00;;;;;;;6.05;4.80;;;28.00;90.40;;;;;;5075340;28;20044;-78
2022/08/14 12:20:31;;;;;;;5.43;4.78;;;28.00;90.10;;;;;;5058293;28;20087;-81
2022/08/14 12:22:59;;;;;;;6.43;4.45;;;28.10;90.10;;;;;;5059441;28;20076;-77
2022/08/14 12:25:25;;;;;;;6.10;5.18;;;28.20;89.50;;;;;;5075038;28;20047;-77
2022/08/14 12:27:54;;;;;;;5.50;4.90;;;28.20;89.50;;;;;;5075231;28;20056;-71
2022/08/14 12:30:35;;;;;;;6.60;4.97;;;28.20;89.10;;;;;;5074882;28;20055;-76
2022/08/14 12:33:07;;;;;;;5.32;4.82;;;28.30;89.20;;;;;;5075142;28;20060;-74
2022/08/14 12:35:37;;;;;;;5.75;5.30;;;28.30;88.80;;;;;;5075594;28;20052;-71
2022/08/14 12:38:03;;;;;;;5.88;5.32;;;28.40;88.30;;;;;;5075743;28;20193;-71
2022/08/14 12:40:30;;;;;;;6.40;4.93;;;28.50;88.10;;;;;;5075079;28;20484;-73
2022/08/14 12:43:02;;;;;;;5.80;4.53;;;28.50;88.00;;;;;;5075653;28;20370;-75
2022/08/14 12:45:33;;;;;;;7.50;5.03;;;28.50;87.80;;;;;;5075700;28;20056;-72
2022/08/14 12:48:03;;;;;;;6.60;5.75;;;28.50;87.40;;;;;;5075208;28;20052;-72
2022/08/14 12:50:40;;;;;;;5.25;4.47;;;28.50;87.60;;;;;;5075614;28;20361;-73
2022/08/14 12:53:10;;;;;;;7.10;5.30;;;28.50;87.50;;;;;;5075641;28;20070;-77
2022/08/14 12:55:38;;;;;;;6.93;5.10;;;28.50;86.70;;;;;;5075903;28;20048;-73
2022/08/14 12:58:06;;;;;;;6.80;5.47;;;28.60;86.20;;;;;;5076606;28;20366;-72
2022/08/14 13:00:38;;;;;;;7.95;5.68;;;28.60;86.60;;;;;;5074538;28;20443;-70
2022/08/14 13:03:04;;;;;;;;;;;28.70;86.40;;;;;;5076089;28;20048;-69
2022/08/14 13:05:33;;;;;;;7.07;5.05;;;28.80;87.30;;;;;;5077192;28;19927;-69
2022/08/14 13:08:03;;;;;;;5.85;5.35;;;28.80;86.40;;;;;;5075421;28;20051;-70
2022/08/14 13:10:34;;;;;;;5.18;4.78;;;28.80;89.00;;;;;;5075093;28;20105;-70